El Dorado, Arkansas
Current Conditions -  °F | °C
As of 5:53 PM on Sunday 25 Jan 2015 (Local Time) from KELD Reporting Station
Overcast Overcast  
Wind Chill: 57°   Ceiling: 8000
Heat Index: 57°   Visibility: 10mi
Dew Point: 33°   Wind: 10mph
Humidity: 40%   Direction: 300°WNW
Pressure: 29.94"   Gusts: 20mph
Location:  33.21°N, 92.66°W
Report Text: KELD 252353Z AUTO 30009G17KT 10SM BKN080 OVC090 14/01 A2994 RMK AO2 SLP137 T01390006 10172 20139 51031
Loading
Personal Weather Stations






























Interactive Weather Map New forecast layout! Learn more

10-Day Weather Forecast

Advertisements
Track Severe Weather on mobile